createdAt,value
2022-09-29T00:00:17.365Z,18.26
2022-09-29T00:02:44.210Z,18.23
2022-09-29T00:05:11.113Z,18.23
2022-09-29T00:07:37.970Z,18.08
2022-09-29T00:10:05.456Z,18.16
2022-09-29T00:12:32.279Z,17.93
2022-09-29T00:14:59.122Z,18.02
2022-09-29T00:17:25.935Z,18.17
2022-09-29T00:19:52.738Z,18.17
2022-09-29T00:22:19.592Z,18.01
2022-09-29T00:24:47.114Z,18.16
2022-09-29T00:27:17.415Z,18.16
2022-09-29T00:29:44.469Z,18.15
2022-09-29T00:32:11.350Z,18.15
2022-09-29T00:34:38.192Z,18.03
2022-09-29T00:37:05.307Z,18.12
2022-09-29T00:39:32.141Z,18.09
2022-09-29T00:41:58.955Z,18.08
2022-09-29T00:44:50.306Z,18.05
2022-09-29T00:47:17.180Z,17.99
2022-09-29T00:49:47.149Z,17.83
2022-09-29T00:52:54.171Z,17.86
2022-09-29T00:55:43.923Z,17.83
2022-09-29T00:58:16.895Z,17.95
2022-09-29T01:00:43.921Z,17.93
2022-09-29T01:03:16.459Z,17.91
2022-09-29T01:05:45.782Z,17.86
2022-09-29T01:08:18.901Z,17.90
2022-09-29T01:10:45.779Z,17.89
2022-09-29T01:13:12.618Z,17.89
2022-09-29T01:15:39.858Z,17.73
2022-09-29T01:18:06.961Z,17.65
2022-09-29T01:20:35.032Z,17.65
2022-09-29T01:23:20.055Z,17.62
2022-09-29T01:26:18.211Z,17.57
2022-09-29T01:29:19.024Z,17.56
2022-09-29T01:32:20.969Z,17.55
2022-09-29T01:35:21.622Z,17.51
2022-09-29T01:37:54.249Z,17.50
2022-09-29T01:40:36.097Z,17.53
2022-09-29T01:43:09.279Z,17.33
2022-09-29T01:45:42.062Z,17.48
2022-09-29T01:48:17.313Z,17.63
2022-09-29T01:50:46.247Z,17.63
2022-09-29T01:53:19.097Z,17.50
2022-09-29T01:55:51.430Z,17.59
2022-09-29T01:58:34.409Z,17.58
2022-09-29T02:01:03.974Z,17.51
2022-09-29T02:03:35.205Z,17.51
2022-09-29T02:06:03.921Z,17.54
2022-09-29T02:08:38.708Z,17.61
2022-09-29T02:11:10.081Z,17.54
2022-09-29T02:13:40.958Z,17.78
2022-09-29T02:16:10.223Z,17.82
2022-09-29T02:18:55.140Z,17.83
2022-09-29T02:21:25.114Z,17.89
2022-09-29T02:23:52.156Z,17.94
2022-09-29T02:26:19.376Z,18.03
2022-09-29T02:28:46.386Z,18.08
2022-09-29T02:31:13.887Z,18.04
2022-09-29T02:33:40.744Z,18.09
2022-09-29T02:36:16.480Z,18.18
2022-09-29T02:39:18.756Z,18.25
2022-09-29T02:42:08.492Z,18.30
2022-09-29T02:45:12.625Z,18.36
2022-09-29T02:48:16.705Z,18.36
2022-09-29T02:51:20.303Z,18.55
2022-09-29T02:54:08.322Z,18.66
2022-09-29T02:56:52.944Z,18.70
2022-09-29T03:00:12.396Z,18.69
2022-09-29T03:02:40.609Z,18.76
2022-09-29T03:05:10.285Z,18.68
2022-09-29T03:07:40.126Z,18.77
2022-09-29T03:10:07.797Z,18.92
2022-09-29T03:12:35.096Z,18.95
2022-09-29T03:15:02.087Z,18.76
2022-09-29T03:17:29.506Z,19.02
2022-09-29T03:19:56.415Z,19.05
2022-09-29T03:22:23.536Z,19.06
2022-09-29T03:24:50.437Z,19.05
2022-09-29T03:27:17.454Z,19.03
2022-09-29T03:29:44.337Z,19.04
2022-09-29T03:32:11.160Z,18.95
2022-09-29T03:34:38.129Z,19.17
2022-09-29T03:37:05.083Z,19.19
2022-09-29T03:39:32.007Z,19.14
2022-09-29T03:41:58.902Z,19.13
2022-09-29T03:44:25.750Z,19.17
2022-09-29T03:46:52.596Z,19.22
2022-09-29T03:49:19.638Z,19.25
2022-09-29T03:51:46.571Z,19.25
2022-09-29T03:54:13.419Z,19.22
2022-09-29T03:56:40.223Z,19.14
2022-09-29T03:59:09.368Z,19.23
2022-09-29T04:01:38.235Z,19.44
2022-09-29T04:04:08.439Z,19.52
2022-09-29T04:06:36.478Z,19.67
2022-09-29T04:09:03.837Z,19.82
2022-09-29T04:11:30.784Z,19.95
2022-09-29T04:13:57.742Z,20.10
2022-09-29T04:16:24.771Z,20.12
2022-09-29T04:18:51.902Z,20.28
2022-09-29T04:21:19.056Z,20.49
2022-09-29T04:23:46.677Z,20.46
2022-09-29T04:26:13.611Z,20.69
2022-09-29T04:28:40.761Z,20.63
2022-09-29T04:31:08.031Z,20.80
2022-09-29T04:33:35.147Z,20.93
2022-09-29T04:36:02.427Z,21.02
2022-09-29T04:38:29.654Z,21.18
2022-09-29T04:40:57.133Z,21.22
2022-09-29T04:43:24.409Z,21.05
2022-09-29T04:45:51.449Z,21.35
2022-09-29T04:48:18.480Z,21.47
2022-09-29T04:50:45.454Z,21.58
2022-09-29T04:53:12.507Z,21.72
2022-09-29T04:55:39.561Z,21.76
2022-09-29T04:58:06.821Z,21.81
2022-09-29T05:00:35.330Z,21.89
2022-09-29T05:03:03.145Z,21.80
2022-09-29T05:05:30.222Z,21.77
2022-09-29T05:07:59.547Z,21.81
2022-09-29T05:10:26.792Z,21.62
2022-09-29T05:12:54.134Z,21.81
2022-09-29T05:15:25.712Z,22.07
2022-09-29T05:17:53.355Z,22.08
2022-09-29T05:20:20.450Z,22.10
2022-09-29T05:22:47.532Z,22.14
2022-09-29T05:25:14.731Z,22.41
2022-09-29T05:27:41.662Z,22.47
2022-09-29T05:30:08.978Z,22.56
2022-09-29T05:32:36.148Z,22.26
2022-09-29T05:35:04.237Z,22.12
2022-09-29T05:37:31.278Z,22.29
2022-09-29T05:39:58.369Z,22.44
2022-09-29T05:42:25.977Z,22.60
2022-09-29T05:44:52.944Z,22.66
2022-09-29T05:47:19.936Z,22.70
2022-09-29T05:49:46.977Z,22.70
2022-09-29T05:52:14.016Z,22.75
2022-09-29T05:54:41.132Z,22.81
2022-09-29T05:57:08.080Z,22.85
2022-09-29T05:59:35.184Z,22.87
2022-09-29T06:02:02.220Z,22.53
2022-09-29T06:04:29.227Z,22.29
2022-09-29T06:06:57.425Z,22.39
2022-09-29T06:09:24.462Z,22.42
2022-09-29T06:11:51.402Z,22.47
2022-09-29T06:14:18.479Z,22.50
2022-09-29T06:16:45.498Z,22.35
2022-09-29T06:19:13.707Z,22.59
2022-09-29T06:21:40.904Z,22.50
2022-09-29T06:24:07.931Z,22.55
2022-09-29T06:26:35.242Z,22.75
2022-09-29T06:29:02.269Z,22.64
2022-09-29T06:31:29.872Z,22.73
2022-09-29T06:34:00.655Z,22.79
2022-09-29T06:36:52.896Z,22.88
2022-09-29T06:39:20.126Z,22.82
2022-09-29T06:41:56.575Z,22.80
2022-09-29T06:44:26.053Z,23.12
2022-09-29T06:46:53.475Z,23.07
2022-09-29T06:49:20.869Z,23.16
2022-09-29T06:51:48.166Z,22.91
2022-09-29T06:54:16.139Z,22.99
2022-09-29T06:56:43.151Z,23.01
2022-09-29T06:59:10.093Z,22.92
2022-09-29T07:01:37.159Z,23.13
2022-09-29T07:04:04.271Z,23.15
2022-09-29T07:06:31.171Z,23.27
2022-09-29T07:08:59.025Z,23.04
2022-09-29T07:11:26.523Z,23.36
2022-09-29T07:13:54.857Z,23.42
2022-09-29T07:16:24.381Z,23.52
2022-09-29T07:18:52.006Z,23.54
2022-09-29T07:21:19.036Z,23.58
2022-09-29T07:23:46.687Z,23.65
2022-09-29T07:26:14.410Z,23.69
2022-09-29T07:28:41.419Z,23.69
2022-09-29T07:31:14.898Z,23.73
2022-09-29T07:33:45.621Z,23.80
2022-09-29T07:36:16.273Z,23.73
2022-09-29T07:38:45.873Z,23.90
2022-09-29T07:41:13.082Z,23.77
2022-09-29T07:43:40.092Z,23.90
2022-09-29T07:46:07.835Z,24.01
2022-09-29T07:48:35.089Z,24.13
2022-09-29T07:51:08.650Z,24.14
2022-09-29T07:53:37.054Z,24.17
2022-09-29T07:56:08.508Z,24.21
2022-09-29T07:58:35.552Z,24.29
2022-09-29T08:01:05.330Z,24.23
2022-09-29T08:03:33.247Z,24.40
2022-09-29T08:06:00.321Z,24.38
2022-09-29T08:08:27.361Z,24.29
2022-09-29T08:11:05.248Z,24.22
2022-09-29T08:13:33.097Z,24.29
2022-09-29T08:16:00.774Z,24.39
2022-09-29T08:18:28.403Z,24.41
2022-09-29T08:20:57.697Z,24.43
2022-09-29T08:23:27.275Z,24.01
2022-09-29T08:26:04.312Z,23.83
2022-09-29T08:28:32.897Z,24.11
2022-09-29T08:31:07.439Z,24.00
2022-09-29T08:33:35.023Z,24.41
2022-09-29T08:36:03.763Z,24.58
2022-09-29T08:38:31.396Z,24.72
2022-09-29T08:40:58.436Z,24.58
2022-09-29T08:43:40.876Z,24.07
2022-09-29T08:46:33.264Z,23.98
2022-09-29T08:49:05.756Z,24.20
2022-09-29T08:51:42.850Z,24.30
2022-09-29T08:54:37.624Z,24.44
2022-09-29T08:57:06.497Z,24.52
2022-09-29T08:59:33.497Z,24.69
2022-09-29T09:02:18.472Z,24.98
2022-09-29T09:04:55.848Z,25.03
2022-09-29T09:07:32.842Z,25.26
2022-09-29T09:10:31.248Z,25.37
2022-09-29T09:13:16.807Z,25.38
2022-09-29T09:16:09.547Z,25.54
2022-09-29T09:19:05.045Z,25.66
2022-09-29T09:21:47.630Z,25.63
2022-09-29T09:24:24.784Z,25.70
2022-09-29T09:26:52.108Z,25.74
2022-09-29T09:29:21.952Z,25.81
2022-09-29T09:32:11.286Z,25.85
2022-09-29T09:34:45.544Z,25.78
2022-09-29T09:37:27.051Z,25.80
2022-09-29T09:40:15.011Z,25.74
2022-09-29T09:42:44.592Z,25.94
2022-09-29T09:45:29.066Z,26.11
2022-09-29T09:48:12.155Z,26.08
2022-09-29T09:50:43.158Z,26.22
2022-09-29T09:53:28.122Z,26.24
2022-09-29T09:56:07.573Z,26.10
2022-09-29T09:58:43.348Z,26.30
2022-09-29T10:01:12.431Z,26.30
2022-09-29T10:03:39.519Z,26.35
2022-09-29T10:06:07.281Z,26.42
2022-09-29T10:08:39.682Z,26.52
2022-09-29T10:11:26.585Z,26.80
2022-09-29T10:14:04.219Z,26.87
2022-09-29T10:16:41.700Z,26.81
2022-09-29T10:19:08.879Z,26.84
2022-09-29T10:21:40.424Z,27.00
2022-09-29T10:24:21.875Z,26.98
2022-09-29T10:26:49.611Z,27.09
2022-09-29T10:29:53.164Z,27.11
2022-09-29T10:32:20.036Z,27.22
2022-09-29T10:34:50.275Z,27.34
2022-09-29T10:37:24.552Z,27.42
2022-09-29T10:39:51.773Z,27.44
2022-09-29T10:42:33.367Z,27.51
2022-09-29T10:45:11.614Z,27.61
2022-09-29T10:47:38.734Z,27.25
2022-09-29T10:50:12.483Z,26.91
2022-09-29T10:52:44.286Z,26.37
2022-09-29T10:55:28.181Z,26.10
2022-09-29T10:57:58.549Z,25.57
2022-09-29T11:00:26.225Z,25.58
2022-09-29T11:02:54.119Z,25.20
2022-09-29T11:05:23.679Z,25.06
2022-09-29T11:07:51.358Z,24.67
2022-09-29T11:10:38.987Z,24.38
2022-09-29T11:13:31.709Z,24.48
2022-09-29T11:16:12.708Z,24.35
2022-09-29T11:18:39.730Z,24.13
2022-09-29T11:21:22.353Z,24.25
2022-09-29T11:24:03.622Z,23.98
2022-09-29T11:26:48.790Z,23.89
2022-09-29T11:29:24.114Z,24.00
2022-09-29T11:32:22.051Z,24.02
2022-09-29T11:35:39.031Z,24.27
2022-09-29T11:38:12.873Z,24.39
2022-09-29T11:40:58.490Z,24.47
2022-09-29T11:43:45.121Z,24.61
2022-09-29T11:46:33.968Z,24.78
2022-09-29T11:49:01.700Z,24.85
2022-09-29T11:51:52.996Z,24.93
2022-09-29T11:54:44.811Z,25.02
2022-09-29T11:57:19.449Z,25.03
2022-09-29T12:00:08.794Z,25.13
2022-09-29T12:02:38.556Z,24.91
2022-09-29T12:05:29.563Z,24.74
2022-09-29T12:08:18.081Z,24.54
2022-09-29T12:11:37.239Z,24.59
2022-09-29T12:14:04.718Z,24.60
2022-09-29T12:16:34.559Z,24.58
2022-09-29T12:19:13.128Z,24.44
2022-09-29T12:21:48.991Z,24.62
2022-09-29T12:24:41.684Z,24.67
2022-09-29T12:27:13.819Z,24.66
2022-09-29T12:29:43.714Z,24.56
2022-09-29T12:32:21.521Z,24.56
2022-09-29T12:34:55.949Z,24.59
2022-09-29T12:37:33.694Z,24.65
2022-09-29T12:40:17.775Z,24.41
2022-09-29T12:43:03.770Z,24.60
2022-09-29T12:46:00.778Z,24.57
2022-09-29T12:48:56.068Z,24.67
2022-09-29T12:51:23.005Z,24.68
2022-09-29T12:54:15.754Z,24.69
2022-09-29T12:56:54.807Z,24.53
2022-09-29T12:59:43.109Z,24.60
2022-09-29T13:02:21.931Z,24.62
2022-09-29T13:04:53.231Z,24.18
2022-09-29T13:07:57.911Z,24.56
2022-09-29T13:11:06.542Z,24.55
2022-09-29T13:13:48.822Z,24.55
2022-09-29T13:16:49.025Z,24.63
2022-09-29T13:19:58.976Z,24.69
2022-09-29T13:22:44.684Z,24.74
2022-09-29T13:25:14.533Z,24.92
2022-09-29T13:27:42.492Z,24.81
2022-09-29T13:30:13.077Z,25.01
2022-09-29T13:33:07.519Z,25.03
2022-09-29T13:35:42.646Z,24.95
2022-09-29T13:38:23.477Z,25.11
2022-09-29T13:41:13.851Z,25.16
2022-09-29T13:44:04.312Z,25.18
2022-09-29T13:46:31.133Z,25.17
2022-09-29T13:49:09.987Z,25.25
2022-09-29T13:52:05.640Z,25.25
2022-09-29T13:54:44.665Z,25.27
2022-09-29T13:57:25.385Z,25.24
2022-09-29T13:59:56.455Z,25.26
2022-09-29T14:02:26.648Z,25.27
2022-09-29T14:04:55.760Z,25.28
2022-09-29T14:07:49.837Z,25.28
2022-09-29T14:10:25.532Z,25.32
2022-09-29T14:13:01.800Z,25.30
2022-09-29T14:15:32.289Z,25.27
2022-09-29T14:18:01.214Z,25.13
2022-09-29T14:20:34.353Z,25.13
2022-09-29T14:23:02.102Z,25.26
2022-09-29T14:25:33.048Z,25.31
2022-09-29T14:28:03.770Z,25.20
2022-09-29T14:30:35.163Z,25.34
2022-09-29T14:33:14.459Z,25.33
2022-09-29T14:35:42.683Z,25.33
2022-09-29T14:38:25.831Z,25.31
2022-09-29T14:41:07.954Z,25.33
2022-09-29T14:43:53.038Z,25.29
2022-09-29T14:46:50.721Z,25.32
2022-09-29T14:49:29.355Z,25.28
2022-09-29T14:52:15.050Z,24.93
2022-09-29T14:55:03.185Z,25.07
2022-09-29T14:57:42.749Z,24.79
2022-09-29T15:00:17.447Z,24.93
2022-09-29T15:02:59.783Z,24.91
2022-09-29T15:05:33.765Z,24.76
2022-09-29T15:08:01.495Z,24.64
2022-09-29T15:10:32.518Z,24.50
2022-09-29T15:13:20.824Z,24.63
2022-09-29T15:15:48.116Z,24.68
2022-09-29T15:18:43.212Z,24.60
2022-09-29T15:21:15.547Z,24.67
2022-09-29T15:23:48.423Z,24.61
2022-09-29T15:26:15.401Z,24.43
2022-09-29T15:28:42.851Z,24.43
2022-09-29T15:31:17.295Z,24.39
2022-09-29T15:33:44.379Z,24.29
2022-09-29T15:36:21.601Z,24.28
2022-09-29T15:38:55.805Z,24.23
2022-09-29T15:41:27.414Z,24.38
2022-09-29T15:44:26.376Z,24.22
2022-09-29T15:46:57.608Z,23.86
2022-09-29T15:49:25.769Z,24.12
2022-09-29T15:51:58.421Z,24.11
2022-09-29T15:57:26.379Z,23.96
2022-09-29T15:59:54.320Z,23.86
2022-09-29T16:02:26.958Z,23.92
2022-09-29T16:04:55.830Z,23.78
2022-09-29T16:07:38.411Z,23.89
2022-09-29T16:10:15.571Z,23.56
2022-09-29T16:12:54.942Z,23.98
2022-09-29T16:15:33.037Z,23.79
2022-09-29T16:18:01.912Z,23.83
2022-09-29T16:20:29.936Z,23.69
2022-09-29T16:22:57.495Z,23.74
2022-09-29T16:25:27.108Z,23.61
2022-09-29T16:27:57.503Z,23.62
2022-09-29T16:30:46.229Z,23.59
2022-09-29T16:33:20.466Z,23.49
2022-09-29T16:35:54.771Z,23.50
2022-09-29T16:38:34.379Z,23.45
2022-09-29T16:41:09.528Z,23.27
2022-09-29T16:43:36.504Z,23.22
2022-09-29T16:46:06.590Z,23.16
2022-09-29T16:48:38.579Z,23.12
2022-09-29T16:51:37.609Z,23.09
2022-09-29T16:54:02.679Z,22.99
2022-09-29T16:56:32.379Z,23.01
2022-09-29T16:59:25.823Z,22.93
2022-09-29T17:01:52.914Z,22.83
2022-09-29T17:04:19.801Z,22.83
2022-09-29T17:06:47.545Z,22.61
2022-09-29T17:09:20.202Z,22.64
2022-09-29T17:11:48.604Z,22.55
2022-09-29T17:14:17.033Z,22.53
2022-09-29T17:16:45.132Z,22.44
2022-09-29T17:19:12.331Z,22.45
2022-09-29T17:21:39.204Z,22.41
2022-09-29T17:24:06.212Z,22.23
2022-09-29T17:26:59.816Z,21.99
2022-09-29T17:29:26.669Z,22.30
2022-09-29T17:31:53.487Z,22.23
2022-09-29T17:34:29.398Z,22.23
2022-09-29T17:36:59.776Z,22.09
2022-09-29T17:39:26.781Z,22.13
2022-09-29T17:41:53.702Z,21.95
2022-09-29T17:44:20.608Z,21.99
2022-09-29T17:46:47.628Z,22.05
2022-09-29T17:49:15.698Z,22.04
2022-09-29T17:51:42.535Z,21.84
2022-09-29T17:54:09.402Z,21.74
2022-09-29T17:56:40.103Z,21.68
2022-09-29T17:59:07.142Z,21.79
2022-09-29T18:01:34.567Z,21.78
2022-09-29T18:04:02.328Z,21.75
2022-09-29T18:06:29.265Z,21.68
2022-09-29T18:08:56.886Z,21.64
2022-09-29T18:11:24.932Z,21.60
2022-09-29T18:13:51.910Z,21.53
2022-09-29T18:16:20.952Z,21.46
2022-09-29T18:18:48.527Z,21.40
2022-09-29T18:21:18.788Z,21.31
2022-09-29T18:23:46.492Z,21.23
2022-09-29T18:26:13.462Z,20.97
2022-09-29T18:28:40.544Z,21.03
2022-09-29T18:31:22.118Z,20.74
2022-09-29T18:33:49.059Z,20.83
2022-09-29T18:36:15.880Z,20.80
2022-09-29T18:38:42.815Z,20.78
2022-09-29T18:41:20.137Z,20.82
2022-09-29T18:43:47.795Z,20.72
2022-09-29T18:46:14.744Z,20.62
2022-09-29T18:48:42.008Z,20.53
2022-09-29T18:51:13.646Z,20.74
2022-09-29T18:53:41.816Z,20.54
2022-09-29T18:56:14.480Z,20.61
2022-09-29T18:58:41.443Z,20.61
2022-09-29T19:01:09.454Z,20.50
2022-09-29T19:03:36.365Z,20.54
2022-09-29T19:06:03.239Z,20.53
2022-09-29T19:08:33.073Z,20.49
2022-09-29T19:11:00.719Z,20.46
2022-09-29T19:13:28.418Z,20.18
2022-09-29T19:15:59.334Z,20.34
2022-09-29T19:18:27.280Z,20.21
2022-09-29T19:20:55.821Z,20.15
2022-09-29T19:23:23.499Z,20.13
2022-09-29T19:25:50.725Z,20.10
2022-09-29T19:28:18.114Z,20.02
2022-09-29T19:30:45.139Z,19.98
2022-09-29T19:33:15.271Z,19.90
2022-09-29T19:35:51.045Z,19.93
2022-09-29T19:38:18.244Z,19.89
2022-09-29T19:40:45.436Z,19.84
2022-09-29T19:43:13.394Z,19.81
2022-09-29T19:45:40.489Z,19.77
2022-09-29T19:48:08.696Z,19.74
2022-09-29T19:50:54.464Z,19.62
2022-09-29T19:53:21.312Z,19.48
2022-09-29T19:55:48.415Z,19.60
2022-09-29T19:58:15.283Z,19.58
2022-09-29T20:00:42.136Z,19.54
2022-09-29T20:03:09.246Z,19.50
2022-09-29T20:05:36.272Z,19.47
2022-09-29T20:08:03.699Z,19.44
2022-09-29T20:10:30.747Z,19.39
2022-09-29T20:12:57.683Z,19.29
2022-09-29T20:15:24.893Z,19.13
2022-09-29T20:17:52.130Z,19.29
2022-09-29T20:20:19.368Z,19.31
2022-09-29T20:22:46.175Z,19.28
2022-09-29T20:25:13.089Z,19.20
2022-09-29T20:27:40.652Z,19.17
2022-09-29T20:30:08.755Z,19.13
2022-09-29T20:32:35.668Z,19.02
2022-09-29T20:35:02.566Z,19.01
2022-09-29T20:37:29.377Z,18.95
2022-09-29T20:39:56.336Z,18.99
2022-09-29T20:42:23.395Z,18.94
2022-09-29T20:44:55.161Z,18.91
2022-09-29T20:47:24.964Z,18.88
2022-09-29T20:49:55.072Z,18.81
2022-09-29T20:52:24.928Z,18.79
2022-09-29T20:54:51.749Z,18.69
2022-09-29T20:57:18.625Z,18.65
2022-09-29T20:59:45.452Z,18.65
2022-09-29T21:02:13.120Z,18.62
2022-09-29T21:04:40.598Z,18.57
2022-09-29T21:07:27.422Z,18.49
2022-09-29T21:09:54.333Z,18.48
2022-09-29T21:12:21.187Z,18.40
2022-09-29T21:14:48.027Z,18.31
2022-09-29T21:17:14.934Z,18.36
2022-09-29T21:19:41.847Z,18.34
2022-09-29T21:22:09.206Z,18.28
2022-09-29T21:24:38.898Z,18.27
2022-09-29T21:27:06.635Z,18.22
2022-09-29T21:29:33.842Z,18.03
2022-09-29T21:32:00.926Z,18.18
2022-09-29T21:34:27.822Z,18.16
2022-09-29T21:36:54.679Z,18.10
2022-09-29T21:39:21.884Z,18.08
2022-09-29T21:41:48.777Z,18.07
2022-09-29T21:44:20.750Z,17.98
2022-09-29T21:46:48.248Z,17.98
2022-09-29T21:49:16.424Z,17.98
2022-09-29T21:51:50.201Z,17.94
2022-09-29T21:54:19.030Z,17.89
2022-09-29T21:56:46.805Z,17.84
2022-09-29T21:59:15.695Z,17.71
2022-09-29T22:01:42.813Z,17.65
2022-09-29T22:04:10.593Z,17.64
2022-09-29T22:06:38.059Z,17.60
2022-09-29T22:09:06.078Z,17.57
2022-09-29T22:11:35.967Z,17.54
2022-09-29T22:14:02.936Z,17.50
2022-09-29T22:16:32.450Z,17.47
2022-09-29T22:19:22.097Z,17.40
2022-09-29T22:21:47.149Z,17.37
2022-09-29T22:24:13.969Z,17.38
2022-09-29T22:26:41.081Z,17.37
2022-09-29T22:29:08.000Z,17.33
2022-09-29T22:31:34.985Z,17.31
2022-09-29T22:34:02.723Z,17.28
2022-09-29T22:36:31.297Z,17.28
2022-09-29T22:38:58.277Z,17.25
2022-09-29T22:41:25.163Z,17.23
2022-09-29T22:43:53.330Z,17.20
2022-09-29T22:46:21.370Z,16.99
2022-09-29T22:48:48.343Z,17.06
2022-09-29T22:51:15.375Z,17.00
2022-09-29T22:53:42.408Z,16.95
2022-09-29T22:56:12.173Z,16.92
2022-09-29T22:58:40.241Z,16.93
2022-09-29T23:01:09.244Z,16.92
2022-09-29T23:03:36.252Z,16.88
2022-09-29T23:06:05.726Z,16.74
2022-09-29T23:08:34.139Z,16.54
2022-09-29T23:11:04.242Z,16.81
2022-09-29T23:13:31.584Z,16.74
2022-09-29T23:16:09.597Z,16.76
2022-09-29T23:18:43.913Z,16.75
2022-09-29T23:21:14.991Z,16.72
2022-09-29T23:23:41.936Z,16.70
2022-09-29T23:26:08.841Z,16.64
2022-09-29T23:28:35.783Z,16.65
2022-09-29T23:31:06.517Z,16.64
2022-09-29T23:33:33.427Z,16.59
2022-09-29T23:36:06.969Z,16.58
2022-09-29T23:38:52.490Z,16.59
2022-09-29T23:41:19.972Z,16.63
2022-09-29T23:43:46.847Z,16.64
2022-09-29T23:46:13.750Z,16.63
2022-09-29T23:48:40.629Z,16.61
2022-09-29T23:51:09.160Z,16.60
2022-09-29T23:53:36.138Z,16.60
2022-09-29T23:56:03.115Z,16.61
2022-09-29T23:58:30.112Z,16.56
